createdAt,value
2023-04-28T00:00:22.257Z,101215.91
2023-04-28T00:02:49.226Z,101212.66
2023-04-28T00:05:16.103Z,101206.63
2023-04-28T00:07:43.001Z,101208.56
2023-04-28T00:10:10.900Z,101205.97
2023-04-28T00:12:37.523Z,101202.06
2023-04-28T00:15:04.763Z,101197.56
2023-04-28T00:17:31.380Z,101189.94
2023-04-28T00:19:58.105Z,101194.47
2023-04-28T00:22:24.801Z,101192.16
2023-04-28T00:24:51.684Z,101188.75
2023-04-28T00:27:18.234Z,101178.84
2023-04-28T00:30:04.080Z,101172.06
2023-04-28T00:32:30.743Z,101160.72
2023-04-28T00:34:57.807Z,101155.03
2023-04-28T00:37:26.702Z,101148.38
2023-04-28T00:39:56.753Z,101144.97
2023-04-28T00:42:24.832Z,101134.91
2023-04-28T00:44:51.511Z,101130.69
2023-04-28T00:47:19.468Z,101124.50
2023-04-28T00:49:49.599Z,101131.44
2023-04-28T00:52:16.430Z,101123.00
2023-04-28T00:54:43.117Z,101133.38
2023-04-28T00:57:10.726Z,101125.75
2023-04-28T00:59:37.368Z,101124.13
2023-04-28T01:02:04.824Z,101126.06
2023-04-28T01:04:32.032Z,101119.09
2023-04-28T01:07:02.395Z,101113.28
2023-04-28T01:09:29.084Z,101109.84
2023-04-28T01:11:56.338Z,101107.56
2023-04-28T01:14:23.110Z,101102.84
2023-04-28T01:16:49.732Z,101103.94
2023-04-28T01:19:25.472Z,101086.94
2023-04-28T01:21:52.568Z,101089.16
2023-04-28T01:24:37.987Z,101090.41
2023-04-28T01:27:04.524Z,101085.56
2023-04-28T01:29:31.048Z,101077.56
2023-04-28T01:31:57.771Z,101078.31
2023-04-28T01:34:24.574Z,101084.72
2023-04-28T01:36:51.203Z,101078.22
2023-04-28T01:39:17.989Z,101082.06
2023-04-28T01:41:44.793Z,101084.13
2023-04-28T01:44:13.043Z,101078.44
2023-04-28T01:46:39.641Z,101072.91
2023-04-28T01:49:06.249Z,101081.09
2023-04-28T01:51:32.977Z,101080.28
2023-04-28T01:54:18.862Z,101076.19
2023-04-28T01:56:45.615Z,101074.88
2023-04-28T01:59:14.186Z,101070.00
2023-04-28T02:01:40.965Z,101070.97
2023-04-28T02:04:07.773Z,101065.63
2023-04-28T02:06:34.646Z,101065.78
2023-04-28T02:09:01.224Z,101052.03
2023-04-28T02:11:27.845Z,101049.31
2023-04-28T02:13:54.379Z,101045.09
2023-04-28T02:16:21.590Z,101051.88
2023-04-28T02:18:48.178Z,101058.69
2023-04-28T02:21:16.501Z,101060.63
2023-04-28T02:23:43.074Z,101049.47
2023-04-28T02:26:09.749Z,101042.53
2023-04-28T02:28:36.357Z,101039.94
2023-04-28T02:31:12.046Z,101044.13
2023-04-28T02:33:38.849Z,101042.09
2023-04-28T02:36:24.150Z,101042.75
2023-04-28T02:38:50.738Z,101041.81
2023-04-28T02:41:17.302Z,101041.66
2023-04-28T02:43:43.879Z,101042.31
2023-04-28T02:46:11.378Z,101033.72
2023-04-28T02:48:37.984Z,101029.38
2023-04-28T02:51:04.639Z,101021.34
2023-04-28T02:53:31.270Z,101018.44
2023-04-28T02:55:59.647Z,101012.47
2023-04-28T02:58:26.783Z,101007.97
2023-04-28T03:00:56.409Z,101014.75
2023-04-28T03:03:23.209Z,101011.38
2023-04-28T03:06:08.503Z,101009.44
2023-04-28T03:08:35.042Z,101005.09
2023-04-28T03:11:02.458Z,101002.34
2023-04-28T03:13:30.100Z,100997.31
2023-04-28T03:15:56.737Z,100990.34
2023-04-28T03:18:23.453Z,100974.72
2023-04-28T03:20:51.115Z,100976.63
2023-04-28T03:23:17.722Z,100981.00
2023-04-28T03:25:44.709Z,100975.50
2023-04-28T03:28:11.765Z,100971.47
2023-04-28T03:30:39.165Z,100967.06
2023-04-28T03:33:05.823Z,100962.56
2023-04-28T03:35:35.875Z,100952.22
2023-04-28T03:38:02.418Z,100952.09
2023-04-28T03:40:28.946Z,100952.09
2023-04-28T03:43:14.094Z,100955.50
2023-04-28T03:45:41.447Z,100949.34
2023-04-28T03:48:10.289Z,100950.16
2023-04-28T03:50:36.908Z,100938.19
2023-04-28T03:53:22.147Z,100946.47
2023-04-28T03:55:48.783Z,100933.38
2023-04-28T03:58:15.493Z,100932.25
2023-04-28T04:00:41.982Z,100926.59
2023-04-28T04:03:09.430Z,100920.72
2023-04-28T04:05:36.284Z,100925.13
2023-04-28T04:08:03.174Z,100924.94
2023-04-28T04:10:30.500Z,100921.91
2023-04-28T04:12:57.004Z,100921.09
2023-04-28T04:15:24.644Z,100916.09
2023-04-28T04:17:51.251Z,100929.69
2023-04-28T04:20:19.840Z,100926.94
2023-04-28T04:22:46.448Z,100928.56
2023-04-28T04:25:13.149Z,100933.44
2023-04-28T04:27:39.710Z,100924.69
2023-04-28T04:30:08.396Z,100928.75
2023-04-28T04:32:35.036Z,100932.00
2023-04-28T04:35:01.866Z,100922.19
2023-04-28T04:37:29.116Z,100927.19
2023-04-28T04:39:55.729Z,100922.84
2023-04-28T04:42:26.036Z,100916.53
2023-04-28T04:44:52.713Z,100906.84
2023-04-28T04:47:19.734Z,100908.47
2023-04-28T04:49:46.350Z,100913.50
2023-04-28T04:52:15.301Z,100905.41
2023-04-28T04:54:41.879Z,100903.50
2023-04-28T04:57:08.478Z,100902.22
2023-04-28T04:59:36.362Z,100899.47
2023-04-28T05:02:03.152Z,100895.13
2023-04-28T05:04:30.103Z,100892.69
2023-04-28T05:06:56.755Z,100879.75
2023-04-28T05:09:24.617Z,100883.81
2023-04-28T05:11:51.251Z,100892.34
2023-04-28T05:17:58.940Z,100899.66
2023-04-28T05:20:25.658Z,100891.75
2023-04-28T05:22:52.242Z,100887.38
2023-04-28T05:25:18.833Z,100882.06
2023-04-28T05:27:45.424Z,100875.13
2023-04-28T05:30:12.203Z,100877.53
2023-04-28T05:32:39.262Z,100872.84
2023-04-28T05:35:06.329Z,100858.63
2023-04-28T05:37:32.954Z,100856.53
2023-04-28T05:39:59.640Z,100853.31
2023-04-28T05:42:26.302Z,100854.00
2023-04-28T05:44:52.848Z,100861.75
2023-04-28T05:47:19.485Z,100864.69
2023-04-28T05:53:41.950Z,100848.84
2023-04-28T05:59:49.685Z,100845.47
2023-04-28T06:02:16.957Z,100852.59
2023-04-28T06:04:44.682Z,100841.91
2023-04-28T06:07:11.418Z,100849.03
2023-04-28T06:09:38.903Z,100851.78
2023-04-28T06:12:06.284Z,100846.94
2023-04-28T06:14:33.106Z,100842.63
2023-04-28T06:16:59.714Z,100847.97
2023-04-28T06:19:26.348Z,100847.00
2023-04-28T06:21:53.195Z,100840.81
2023-04-28T06:24:19.837Z,100835.63
2023-04-28T06:26:46.670Z,100828.66
2023-04-28T06:29:13.336Z,100831.72
2023-04-28T06:31:40.056Z,100836.53
2023-04-28T06:34:07.448Z,100836.69
2023-04-28T06:40:24.833Z,100837.47
2023-04-28T06:42:51.831Z,100841.69
2023-04-28T06:45:18.524Z,100837.47
2023-04-28T06:47:45.210Z,100843.28
2023-04-28T06:54:31.261Z,100842.31
2023-04-28T07:00:48.990Z,100846.69
2023-04-28T07:03:15.693Z,100851.91
2023-04-28T07:05:42.316Z,100858.22
2023-04-28T07:08:08.920Z,100849.16
2023-04-28T07:10:35.464Z,100847.06
2023-04-28T07:13:02.022Z,100849.16
2023-04-28T07:15:28.999Z,100857.63
2023-04-28T07:17:55.705Z,100857.44
2023-04-28T07:20:22.475Z,100852.88
2023-04-28T07:22:49.184Z,100861.13
2023-04-28T07:25:16.012Z,100867.16
2023-04-28T07:27:42.627Z,100860.34
2023-04-28T07:30:25.687Z,100863.75
2023-04-28T07:36:45.933Z,100859.72
2023-04-28T07:39:12.573Z,100865.88
2023-04-28T07:41:39.336Z,100856.44
2023-04-28T07:44:08.288Z,100853.72
2023-04-28T07:46:35.432Z,100851.25
2023-04-28T07:49:03.392Z,100836.38
2023-04-28T07:55:48.777Z,100813.19
2023-04-28T08:01:56.843Z,100798.91
2023-04-28T08:04:23.778Z,100806.38
2023-04-28T08:06:50.920Z,100803.91
2023-04-28T08:09:17.535Z,100815.06
2023-04-28T08:11:44.166Z,100812.88
2023-04-28T08:14:10.729Z,100816.97
2023-04-28T08:16:40.410Z,100817.00
2023-04-28T08:19:07.687Z,100819.13
2023-04-28T08:21:34.583Z,100814.19
2023-04-28T08:27:42.028Z,100819.75
2023-04-28T08:30:09.273Z,100814.66
2023-04-28T08:32:36.166Z,100814.25
2023-04-28T08:35:03.915Z,100814.88
2023-04-28T08:37:31.155Z,100815.50
2023-04-28T08:43:08.674Z,100820.97
2023-04-28T08:49:17.839Z,100812.91
2023-04-28T08:53:02.028Z,100815.44
2023-04-28T09:00:01.257Z,100821.53
2023-04-28T09:02:28.129Z,100825.06
2023-04-28T09:04:55.008Z,100815.72
2023-04-28T09:07:22.323Z,100816.19
2023-04-28T09:09:48.911Z,100807.81
2023-04-28T09:12:16.059Z,100806.13
2023-04-28T09:14:42.671Z,100804.56
2023-04-28T09:17:13.415Z,100804.84
2023-04-28T09:19:42.825Z,100805.31
2023-04-28T09:22:24.693Z,100804.56
2023-04-28T09:24:56.545Z,100795.59
2023-04-28T09:31:05.187Z,100793.56
2023-04-28T09:37:24.973Z,100794.22
2023-04-28T09:40:12.079Z,100797.88
2023-04-28T09:51:06.999Z,100787.91
2023-04-28T09:53:35.582Z,100780.63
2023-04-28T10:00:05.959Z,100763.88
2023-04-28T10:03:08.208Z,100761.56
2023-04-28T10:05:36.009Z,100758.41
2023-04-28T10:08:03.818Z,100763.91
2023-04-28T10:10:30.490Z,100751.53
2023-04-28T10:16:48.104Z,100753.06
2023-04-28T10:19:14.669Z,100748.63
2023-04-28T10:22:00.417Z,100741.44
2023-04-28T10:28:18.389Z,100737.63
2023-04-28T10:34:30.161Z,100718.50
2023-04-28T10:40:42.366Z,100719.31
2023-04-28T10:47:04.190Z,100715.78
2023-04-28T10:53:21.943Z,100706.66
2023-04-28T10:59:39.309Z,100716.59
2023-04-28T11:02:43.969Z,100707.25
2023-04-28T11:05:28.431Z,100718.31
2023-04-28T11:11:36.317Z,100703.50
2023-04-28T11:18:52.764Z,100701.44
2023-04-28T11:21:22.660Z,100702.66
2023-04-28T11:23:50.708Z,100699.69
2023-04-28T11:38:04.272Z,100697.53
2023-04-28T11:44:23.111Z,100712.88
2023-04-28T11:50:40.600Z,100704.84
2023-04-28T11:53:07.633Z,100707.22
2023-04-28T11:56:13.721Z,100703.19
2023-04-28T12:02:30.876Z,100696.31
2023-04-28T12:05:53.383Z,100695.69
2023-04-28T12:12:12.992Z,100704.16
2023-04-28T12:18:19.520Z,100710.66
2023-04-28T12:20:46.193Z,100712.28
2023-04-28T12:23:12.904Z,100715.09
2023-04-28T12:25:47.305Z,100708.25
2023-04-28T12:28:14.003Z,100706.41
2023-04-28T12:30:43.758Z,100703.63
2023-04-28T12:33:27.940Z,100705.22
2023-04-28T12:35:56.581Z,100716.09
2023-04-28T12:38:27.229Z,100708.25
2023-04-28T12:40:54.189Z,100708.66
2023-04-28T12:43:23.410Z,100703.63
2023-04-28T12:45:55.306Z,100708.03
2023-04-28T12:48:24.004Z,100703.22
2023-04-28T12:50:50.641Z,100701.00
2023-04-28T12:53:17.262Z,100708.66
2023-04-28T13:03:23.368Z,100712.22
2023-04-28T13:05:51.616Z,100709.59
2023-04-28T13:12:09.138Z,100697.38
2023-04-28T13:14:35.904Z,100691.53
2023-04-28T13:17:03.439Z,100695.38
2023-04-28T13:19:31.532Z,100686.94
2023-04-28T13:21:58.270Z,100691.13
2023-04-28T16:55:10.981Z,100700.63
2023-04-28T16:57:37.561Z,100704.03
2023-04-28T17:00:41.938Z,100703.00
2023-04-28T17:06:50.508Z,100704.19
2023-04-28T17:09:17.841Z,100706.78
2023-04-28T17:11:44.679Z,100703.59
2023-04-28T17:14:11.279Z,100710.84
2023-04-28T17:16:37.855Z,100712.47
2023-04-28T17:19:05.333Z,100705.41
2023-04-28T17:21:33.766Z,100703.34
2023-04-28T17:24:00.759Z,100703.16
2023-04-28T17:26:29.650Z,100707.19
2023-04-28T17:28:57.124Z,100699.72
2023-04-28T17:31:24.008Z,100706.91
2023-04-28T20:38:29.690Z,100852.88
2023-04-28T20:40:58.961Z,100854.31
2023-04-28T20:43:44.332Z,100860.53
2023-04-28T20:46:13.732Z,100859.72
2023-04-28T20:48:41.609Z,100855.88
2023-04-28T20:51:08.249Z,100858.22
2023-04-28T20:53:34.832Z,100861.16
2023-04-28T20:56:01.513Z,100865.41
2023-04-28T20:58:32.019Z,100857.75
2023-04-28T21:00:59.170Z,100867.00
2023-04-28T21:03:26.772Z,100869.00
2023-04-28T21:05:53.382Z,100859.94
2023-04-28T21:08:22.024Z,100868.09
2023-04-28T21:10:48.734Z,100869.09
2023-04-28T21:13:15.269Z,100871.06
2023-04-28T21:15:42.108Z,100865.84
2023-04-28T21:18:27.418Z,100869.44
2023-04-28T21:20:54.787Z,100871.56
2023-04-28T21:23:23.059Z,100874.88
2023-04-28T21:25:49.710Z,100887.00
2023-04-28T21:28:17.618Z,100891.13
2023-04-28T21:30:44.266Z,100893.47
2023-04-28T21:33:11.767Z,100890.41
2023-04-28T21:35:38.598Z,100891.94
2023-04-28T21:38:26.827Z,100898.13
2023-04-28T21:40:54.944Z,100903.22
2023-04-28T21:43:22.453Z,100906.16
2023-04-28T21:45:50.638Z,100903.13
2023-04-28T21:48:17.626Z,100908.34
2023-04-28T21:50:45.458Z,100913.44
2023-04-28T21:53:12.066Z,100913.16
2023-04-28T21:55:39.983Z,100920.31
2023-04-28T21:58:06.602Z,100916.16
2023-04-28T22:00:39.796Z,100922.34
2023-04-28T22:03:07.071Z,100918.47
2023-04-28T22:05:35.585Z,100925.81
2023-04-28T22:08:02.281Z,100919.00
2023-04-28T22:10:47.804Z,100924.34
2023-04-28T22:13:14.573Z,100928.28
2023-04-28T22:16:00.229Z,100924.47
2023-04-28T22:18:27.731Z,100927.25
2023-04-28T22:20:56.153Z,100933.25
2023-04-28T22:23:23.262Z,100929.53
2023-04-28T22:25:50.120Z,100931.50
2023-04-28T22:28:16.918Z,100938.50
2023-04-28T22:30:46.076Z,100938.97
2023-04-28T22:33:12.748Z,100938.34
2023-04-28T22:35:40.683Z,100937.03
2023-04-28T22:38:08.088Z,100948.63
2023-04-28T22:40:34.847Z,100953.97
2023-04-28T22:43:03.227Z,100943.91
2023-04-28T22:45:29.802Z,100946.69
2023-04-28T22:48:16.984Z,100945.41
2023-04-28T22:50:43.592Z,100955.31
2023-04-28T22:53:10.367Z,100961.03
2023-04-28T22:55:37.525Z,100950.00
2023-04-28T22:58:04.145Z,100946.94
2023-04-28T23:00:31.947Z,100955.72
2023-04-28T23:02:58.879Z,100954.06
2023-04-28T23:05:31.674Z,100956.03
2023-04-28T23:07:59.562Z,100958.63
2023-04-28T23:10:26.299Z,100956.88
2023-04-28T23:12:54.641Z,100970.50
2023-04-28T23:15:21.244Z,100964.03
2023-04-28T23:17:48.138Z,100961.44
2023-04-28T23:20:15.048Z,100971.81
2023-04-28T23:22:41.889Z,100965.81
2023-04-28T23:25:09.457Z,100965.16
2023-04-28T23:27:54.938Z,100963.38
2023-04-28T23:30:22.648Z,100978.47
2023-04-28T23:33:11.047Z,100973.47
2023-04-28T23:35:37.998Z,100978.81
2023-04-28T23:38:04.548Z,100982.56
2023-04-28T23:40:31.136Z,100982.72
2023-04-28T23:43:02.699Z,100982.72
2023-04-28T23:45:29.272Z,100980.94
2023-04-28T23:47:56.467Z,100982.25
2023-04-28T23:50:23.944Z,100987.31
2023-04-28T23:52:50.516Z,100992.69
2023-04-28T23:55:18.496Z,100993.19
2023-04-28T23:57:45.117Z,100992.84
